Time;durP1;ratioP1;P1;durP2;ratioP2;P2;SDS_P1;SDS_P2;PMS_P1;PMS_P2;Temp;Humidity;BMP_temperature;BMP_pressure;BME280_temperature;BME280_humidity;BME280_pressure;Samples;Min_cycle;Max_cycle;Signal;HPM_P1;HPM_P2
2020/12/21 00:00:11;;;;;;;3.17;2.10;;;;;;;-2.22;79.75;101630.63;1855524;77;20965;-72
2020/12/21 00:02:40;;;;;;;1.47;1.37;;;;;;;-2.24;79.66;101632.47;1855538;77;20937;-71
2020/12/21 00:05:08;;;;;;;2.13;1.40;;;;;;;-2.26;79.55;101633.45;1855654;77;20985;-71
2020/12/21 00:07:38;;;;;;;1.63;1.53;;;;;;;-2.30;79.50;101634.00;1855537;77;20894;-73
2020/12/21 00:10:07;;;;;;;2.73;1.50;;;;;;;-2.32;79.38;101635.81;1855364;77;21000;-72
2020/12/21 00:12:38;;;;;;;1.60;1.50;;;;;;;-2.34;79.30;101637.64;1848025;77;20976;-72
2020/12/21 00:15:06;;;;;;;0.77;0.77;;;;;;;-2.38;79.12;101644.83;1783062;80;21596;-71
2020/12/21 00:17:34;;;;;;;1.67;1.47;;;;;;;-2.41;78.97;101645.38;1791617;78;20977;-72
2020/12/21 00:20:04;;;;;;;1.57;1.37;;;;;;;-2.46;78.88;101637.60;1823221;77;21193;-72
2020/12/21 00:22:32;;;;;;;1.27;1.17;;;;;;;-2.50;78.69;101641.23;1821724;78;20989;-72
2020/12/21 00:24:59;;;;;;;1.27;1.17;;;;;;;-2.56;78.60;101636.15;1821877;78;21590;-72
2020/12/21 00:27:27;;;;;;;1.17;1.17;;;;;;;-2.58;78.67;101643.28;1821897;78;21024;-72
2020/12/21 00:29:55;;;;;;;0.90;0.90;;;;;;;-2.58;78.72;101636.66;1821961;78;21032;-72
2020/12/21 00:32:23;;;;;;;1.10;1.10;;;;;;;-2.59;78.80;101638.42;1822090;78;22521;-72
2020/12/21 00:34:52;;;;;;;1.57;1.47;;;;;;;-2.59;78.84;101642.39;1821978;78;20992;-72
2020/12/21 00:37:20;;;;;;;1.87;1.10;;;;;;;-2.57;78.90;101639.23;1822038;78;21000;-72
2020/12/21 00:39:48;;;;;;;6.40;3.27;;;;;;;-2.56;78.95;101632.17;1821929;78;21387;-72
2020/12/21 00:42:16;;;;;;;4.93;3.07;;;;;;;-2.60;78.59;101631.84;1821862;78;20965;-72
2020/12/21 00:44:45;;;;;;;1.63;1.53;;;;;;;-2.64;78.46;101635.51;1821710;78;21383;-72
2020/12/21 00:47:13;;;;;;;2.40;2.23;;;;;;;-2.70;78.37;101629.95;1822013;78;20988;-72
2020/12/21 00:49:42;;;;;;;1.90;1.53;;;;;;;-2.73;78.37;101630.03;1815281;78;21523;-72
2020/12/21 00:52:11;;;;;;;1.70;1.40;;;;;;;-2.78;78.35;101627.98;1811668;79;20978;-73
2020/12/21 00:54:39;;;;;;;0.83;0.80;;;;;;;-2.79;78.43;101629.77;1811888;79;21005;-71
2020/12/21 00:57:07;;;;;;;0.87;0.87;;;;;;;-2.81;78.48;101628.95;1811539;79;21377;-71
2020/12/21 00:59:35;;;;;;;0.90;0.90;;;;;;;-2.86;78.45;101630.88;1811726;79;21001;-72
2020/12/21 01:02:07;;;;;;;0.50;0.50;;;;;;;-2.89;78.47;101630.48;1811069;79;20973;-72
2020/12/21 01:04:36;;;;;;;1.75;1.42;;;;;;;-2.91;78.53;101631.00;1811218;79;20985;-72
2020/12/21 01:07:05;;;;;;;0.93;0.93;;;;;;;-2.93;78.57;101628.00;1811004;79;20906;-72
2020/12/21 01:09:33;;;;;;;2.23;1.40;;;;;;;-2.93;78.66;101636.80;1811010;79;21184;-73
2020/12/21 01:12:01;;;;;;;2.73;1.67;;;;;;;-2.94;78.69;101639.05;1811163;79;21014;-72
2020/12/21 01:14:30;;;;;;;2.03;1.33;;;;;;;-2.91;78.84;101637.62;1811404;79;21008;-72
2020/12/21 01:16:58;;;;;;;0.70;0.70;;;;;;;-2.90;78.89;101631.42;1811195;79;21304;-72
2020/12/21 01:19:26;;;;;;;1.33;1.20;;;;;;;-2.87;78.96;101637.95;1828755;77;20993;-72
2020/12/21 01:21:53;;;;;;;3.40;1.67;;;;;;;-2.84;78.87;101637.45;1830353;78;21706;-71
2020/12/21 01:24:21;;;;;;;1.23;1.13;;;;;;;-2.87;78.64;101636.63;1830340;78;21008;-71
2020/12/21 01:26:49;;;;;;;2.10;1.57;;;;;;;-2.87;78.54;101640.61;1830402;77;21063;-72
2020/12/21 01:29:17;;;;;;;1.13;1.03;;;;;;;-2.88;78.47;101641.50;1830176;78;20929;-72
2020/12/21 01:31:45;;;;;;;2.63;1.50;;;;;;;-2.89;78.38;101639.75;1830238;78;20938;-72
2020/12/21 01:34:13;;;;;;;0.67;0.67;;;;;;;-2.90;78.32;101643.80;1830505;78;22096;-71
2020/12/21 01:36:43;;;;;;;0.83;0.83;;;;;;;-2.91;78.30;101643.37;1810950;79;20993;-73
2020/12/21 01:39:11;;;;;;;0.93;0.93;;;;;;;-2.92;78.36;101640.30;1811123;79;21021;-71
2020/12/21 01:41:39;;;;;;;2.30;2.20;;;;;;;-2.89;78.45;101642.41;1811268;79;21028;-72
2020/12/21 01:44:06;;;;;;;2.37;2.17;;;;;;;-2.89;78.49;101637.11;1811284;79;20918;-73
2020/12/21 01:46:35;;;;;;;1.03;1.03;;;;;;;-2.87;78.48;101643.69;1811041;79;21418;-73
2020/12/21 01:49:03;;;;;;;1.40;1.30;;;;;;;-2.87;78.48;101639.28;1813028;78;20985;-72
2020/12/21 01:51:30;;;;;;;1.87;1.10;;;;;;;-2.84;78.49;101646.25;1821374;78;21052;-72
2020/12/21 01:53:58;;;;;;;1.10;1.10;;;;;;;-2.83;78.38;101637.41;1821727;78;20921;-72
2020/12/21 01:56:26;;;;;;;1.80;1.53;;;;;;;-2.80;78.38;101643.05;1821683;78;21008;-72
2020/12/21 01:58:54;;;;;;;1.10;1.10;;;;;;;-2.77;78.42;101641.17;1821653;78;21327;-72
2020/12/21 02:01:22;;;;;;;1.77;1.30;;;;;;;-2.73;78.38;101636.66;1821737;78;21573;-71
2020/12/21 02:03:50;;;;;;;1.63;1.53;;;;;;;-2.71;78.27;101626.45;1790097;78;21044;-72
2020/12/21 02:06:18;;;;;;;1.23;1.17;;;;;;;-2.70;78.07;101633.45;1790099;78;21641;-71
2020/12/21 02:08:46;;;;;;;0.77;0.77;;;;;;;-2.72;77.93;101634.44;1820989;78;21550;-71
2020/12/21 02:11:15;;;;;;;0.90;0.90;;;;;;;-2.73;77.89;101635.33;1821246;78;22187;-70
2020/12/21 02:13:43;;;;;;;0.97;0.70;;;;;;;-2.73;77.89;101634.86;1820685;78;20969;-72
2020/12/21 02:16:15;;;;;;;1.57;1.37;;;;;;;-2.69;77.92;101635.20;1821043;78;20977;-72
2020/12/21 02:18:42;;;;;;;2.40;1.37;;;;;;;-2.69;77.86;101627.27;1820926;77;20991;-72
2020/12/21 02:21:10;;;;;;;1.20;1.20;;;;;;;-2.68;77.88;101624.14;1820913;78;20963;-72
2020/12/21 02:23:38;;;;;;;1.53;1.30;;;;;;;-2.69;77.79;101629.91;1820962;78;21592;-72
2020/12/21 02:26:06;;;;;;;2.17;1.53;;;;;;;-2.72;77.76;101629.14;1820867;78;20986;-71
2020/12/21 02:28:34;;;;;;;0.80;0.80;;;;;;;-2.71;77.86;101629.53;1820917;78;21748;-72
2020/12/21 02:31:02;;;;;;;1.17;1.07;;;;;;;-2.72;77.91;101636.61;1820821;78;20975;-72
2020/12/21 02:33:30;;;;;;;1.27;1.00;;;;;;;-2.71;78.00;101638.36;1836397;77;20942;-72
2020/12/21 02:35:58;;;;;;;1.67;1.57;;;;;;;-2.72;78.03;101636.61;1821039;78;21419;-72
2020/12/21 02:38:26;;;;;;;1.00;1.00;;;;;;;-2.73;77.99;101638.84;1820945;78;21049;-71
2020/12/21 02:40:54;;;;;;;1.23;1.00;;;;;;;-2.75;77.96;101634.52;1820906;78;20927;-72
2020/12/21 02:43:22;;;;;;;2.23;1.90;;;;;;;-2.78;77.89;101628.88;1820813;78;21005;-71
2020/12/21 02:45:50;;;;;;;1.50;1.07;;;;;;;-2.82;77.78;101626.35;1820981;78;20998;-73
2020/12/21 02:48:17;;;;;;;3.33;1.77;;;;;;;-2.85;77.77;101633.95;1820996;78;21131;-73
2020/12/21 02:50:46;;;;;;;4.17;1.73;;;;;;;-2.89;77.74;101633.14;1786498;80;20936;-72
2020/12/21 02:53:15;;;;;;;5.10;3.23;;;;;;;-2.95;77.65;101630.69;1784472;80;21009;-73
2020/12/21 02:55:46;;;;;;;8.03;3.37;;;;;;;-3.00;77.71;101628.63;1787869;80;20998;-72
2020/12/21 02:58:14;;;;;;;6.00;3.60;;;;;;;-2.99;77.77;101630.81;1804189;78;20974;-72
2020/12/21 03:00:43;;;;;;;5.93;3.27;;;;;;;-3.02;77.75;101628.28;1797386;79;22364;-72
2020/12/21 03:03:12;;;;;;;14.37;4.90;;;;;;;-3.04;77.86;101630.97;1797258;79;21005;-72
2020/12/21 03:05:40;;;;;;;5.27;2.87;;;;;;;-3.05;77.83;101629.22;1797280;79;21016;-72
2020/12/21 03:08:09;;;;;;;6.00;3.27;;;;;;;-3.11;77.70;101630.73;1797362;79;20914;-72
2020/12/21 03:10:38;;;;;;;17.60;5.33;;;;;;;-3.15;77.79;101631.28;1796674;79;20929;-72
2020/12/21 03:13:06;;;;;;;6.10;3.80;;;;;;;-3.15;77.88;101634.36;1797428;79;21566;-72
2020/12/21 03:15:34;;;;;;;5.43;3.83;;;;;;;-3.18;77.89;101640.63;1797320;79;20914;-72
2020/12/21 03:18:02;;;;;;;10.97;4.50;;;;;;;-3.20;77.89;101642.92;1797276;79;21026;-72
2020/12/21 03:20:31;;;;;;;8.00;3.83;;;;;;;-3.21;77.90;101635.88;1766141;79;21016;-73
2020/12/21 03:22:58;;;;;;;1.20;1.10;;;;;;;-3.24;77.87;101640.78;1765799;81;20926;-72
2020/12/21 03:25:26;;;;;;;5.03;2.33;;;;;;;-3.26;77.88;101645.25;1765779;81;21661;-72
2020/12/21 03:27:54;;;;;;;3.63;2.40;;;;;;;-3.27;77.94;101645.72;1765699;81;21001;-72
2020/12/21 03:30:21;;;;;;;1.77;1.63;;;;;;;-3.30;77.80;101646.27;1765820;81;21144;-72
2020/12/21 03:32:51;;;;;;;1.73;1.37;;;;;;;-3.34;77.75;101656.52;1765796;81;21064;-72
2020/12/21 03:35:23;;;;;;;3.50;1.87;;;;;;;-3.34;77.83;101657.84;1763187;81;20989;-73
2020/12/21 03:37:50;;;;;;;7.40;3.00;;;;;;;-3.36;77.80;101653.92;1765720;81;21208;-72
2020/12/21 03:40:18;;;;;;;1.73;0.90;;;;;;;-3.38;77.83;101648.24;1765686;81;20941;-72
2020/12/21 03:42:47;;;;;;;1.90;1.17;;;;;;;-3.39;77.86;101662.39;1765841;81;20969;-71
2020/12/21 03:45:14;;;;;;;2.50;1.97;;;;;;;-3.43;77.86;101651.03;1765761;81;21053;-72
2020/12/21 03:47:42;;;;;;;3.33;1.90;;;;;;;-3.44;77.97;101660.72;1765778;81;21084;-72
2020/12/21 03:50:10;;;;;;;1.97;1.50;;;;;;;-3.42;78.14;101657.18;1763805;81;21200;-72
2020/12/21 03:52:38;;;;;;;1.90;1.30;;;;;;;-3.45;78.16;101661.65;1740659;82;21468;-73
2020/12/21 03:55:06;;;;;;;4.33;2.10;;;;;;;-3.48;78.21;101660.87;1779873;79;21029;-72
2020/12/21 03:57:34;;;;;;;2.93;1.97;;;;;;;-3.52;78.32;101665.83;1760419;81;20958;-72
2020/12/21 04:00:04;;;;;;;3.27;2.27;;;;;;;-3.55;78.39;101672.52;1779998;80;20970;-72
2020/12/21 04:02:34;;;;;;;1.80;1.70;;;;;;;-3.60;78.43;101670.45;1775306;80;21610;-72
2020/12/21 04:05:06;;;;;;;2.40;2.13;;;;;;;-3.63;78.55;101672.27;1779903;80;20973;-72
2020/12/21 04:07:35;;;;;;;2.60;1.93;;;;;;;-3.62;78.65;101671.80;1779951;80;21049;-72
2020/12/21 04:10:06;;;;;;;2.13;2.00;;;;;;;-3.65;78.70;101678.06;1779891;80;21678;-72
2020/12/21 04:12:34;;;;;;;1.60;1.50;;;;;;;-3.68;78.70;101679.91;1779944;80;21492;-72
2020/12/21 04:15:04;;;;;;;5.93;4.13;;;;;;;-3.72;78.70;101683.09;1779855;80;22225;-72
2020/12/21 04:17:33;;;;;;;3.80;3.10;;;;;;;-3.75;78.70;101679.20;1780012;80;21520;-71
2020/12/21 04:20:01;;;;;;;2.20;1.83;;;;;;;-3.78;78.73;101687.20;1763522;80;20942;-72
2020/12/21 04:22:30;;;;;;;2.57;1.87;;;;;;;-3.78;78.73;101694.27;1758888;81;21042;-73
2020/12/21 04:24:59;;;;;;;1.37;1.27;;;;;;;-3.78;78.74;101692.95;1759017;81;21009;-72
2020/12/21 04:27:27;;;;;;;1.47;1.37;;;;;;;-3.76;78.83;101698.59;1758963;81;21367;-72
2020/12/21 04:29:55;;;;;;;2.00;1.90;;;;;;;-3.71;78.96;101698.48;1758838;81;21179;-72
2020/12/21 04:32:22;;;;;;;1.40;1.20;;;;;;;-3.67;79.04;101693.06;1759055;81;21009;-72
2020/12/21 04:34:50;;;;;;;2.23;1.33;;;;;;;-3.60;79.05;101687.64;1758924;81;21036;-74
2020/12/21 04:37:18;;;;;;;1.10;1.10;;;;;;;-3.56;78.99;101682.67;1759255;81;21555;-72
2020/12/21 04:39:46;;;;;;;0.73;0.70;;;;;;;-3.52;78.92;101682.56;1759353;81;22039;-72
2020/12/21 04:42:14;;;;;;;4.30;1.73;;;;;;;-3.50;78.84;101686.03;1759197;81;20962;-73
2020/12/21 04:44:42;;;;;;;2.13;1.50;;;;;;;-3.49;78.76;101678.52;1790412;80;21574;-73
2020/12/21 04:47:10;;;;;;;0.97;0.97;;;;;;;-3.45;78.73;101684.13;1759132;81;21008;-72
2020/12/21 04:49:38;;;;;;;2.70;2.03;;;;;;;-3.41;78.70;101676.12;1790381;80;21606;-73
2020/12/21 04:52:06;;;;;;;2.30;2.07;;;;;;;-3.37;78.71;101677.77;1759556;81;21379;-72
2020/12/21 04:54:34;;;;;;;2.30;1.43;;;;;;;-3.35;78.58;101674.62;1790971;80;21571;-73
2020/12/21 04:57:02;;;;;;;1.03;1.03;;;;;;;-3.35;78.52;101686.52;1759672;81;21025;-71
2020/12/21 04:59:29;;;;;;;1.33;1.23;;;;;;;-3.35;78.41;101679.45;1757975;81;21203;-72
2020/12/21 05:01:57;;;;;;;0.67;0.67;;;;;;;-3.34;78.43;101682.52;1759768;81;20938;-72
2020/12/21 05:04:25;;;;;;;2.50;2.03;;;;;;;-3.31;78.41;101685.52;1790927;80;21022;-72
2020/12/21 05:06:56;;;;;;;1.13;1.13;;;;;;;-3.32;78.25;101682.48;1759605;81;21563;-72
2020/12/21 05:09:25;;;;;;;1.13;1.03;;;;;;;-3.34;78.22;101691.77;1757980;81;21599;-72
2020/12/21 05:12:02;;;;;;;1.57;1.47;;;;;;;-3.32;78.30;101686.45;1759626;81;20997;-72
2020/12/21 05:14:33;;;;;;;3.17;2.27;;;;;;;-3.28;78.38;101678.83;1788720;80;20947;-70
2020/12/21 05:17:15;;;;;;;1.67;1.43;;;;;;;-3.24;78.42;101688.41;1710738;83;21390;-72
2020/12/21 05:19:43;;;;;;;2.10;1.73;;;;;;;-3.21;78.37;101690.12;1720628;83;21054;-72
2020/12/21 05:22:18;;;;;;;2.20;1.70;;;;;;;-3.16;78.40;101698.33;1720842;83;21156;-73
2020/12/21 05:24:46;;;;;;;7.07;2.23;;;;;;;-3.14;78.35;101697.83;1717403;83;21590;-72
2020/12/21 05:27:17;;;;;;;1.80;1.37;;;;;;;-3.11;78.33;101692.92;1720882;83;21033;-72
2020/12/21 05:29:53;;;;;;;1.72;1.62;;;;;;;-3.11;78.31;101697.75;1695070;83;21205;-72
2020/12/21 05:32:21;;;;;;;5.57;2.50;;;;;;;-3.11;78.23;101698.22;1691890;84;21126;-72
2020/12/21 05:34:49;;;;;;;2.07;1.87;;;;;;;-3.10;78.24;101701.26;1691929;84;21108;-73
2020/12/21 05:37:21;;;;;;;8.33;4.03;;;;;;;-3.10;78.25;101707.44;1692035;84;20980;-71
2020/12/21 05:39:53;;;;;;;2.43;2.23;;;;;;;-3.09;78.27;101707.84;1692078;84;21431;-73
2020/12/21 05:42:22;;;;;;;2.30;2.08;;;;;;;-3.09;78.28;101703.87;1692131;84;21224;-72
2020/12/21 05:44:57;;;;;;;2.37;2.17;;;;;;;-3.11;78.22;101707.48;1667762;84;21489;-73
2020/12/21 05:47:33;;;;;;;2.27;1.57;;;;;;;-3.11;78.14;101707.48;1844874;76;24419;-72
2020/12/21 05:50:06;;;;;;;1.57;1.47;;;;;;;-3.18;78.14;101711.20;1815444;79;21485;-72
2020/12/21 05:52:38;;;;;;;4.00;2.02;;;;;;;-3.23;78.11;101706.03;1815476;79;23904;-72
2020/12/21 05:55:11;;;;;;;2.93;1.50;;;;;;;-3.29;78.14;101706.22;1815242;79;21004;-72
2020/12/21 05:57:39;;;;;;;2.00;1.75;;;;;;;-3.31;78.30;101706.68;1815586;79;21047;-74
2020/12/21 06:00:09;;;;;;;2.73;1.93;;;;;;;-3.27;78.46;101707.89;1815383;79;21553;-70
2020/12/21 06:02:37;;;;;;;1.33;1.13;;;;;;;-3.26;78.47;101708.75;1815264;79;21086;-73
2020/12/21 06:05:08;;;;;;;1.80;1.70;;;;;;;-3.28;78.44;101719.83;1815260;79;21799;-72
2020/12/21 06:07:37;;;;;;;0.97;0.97;;;;;;;-3.30;78.46;101711.08;1815109;79;21067;-71
2020/12/21 06:10:07;;;;;;;1.60;1.47;;;;;;;-3.29;78.53;101718.12;1815242;79;21032;-72
2020/12/21 06:12:48;;;;;;;2.13;1.70;;;;;;;-3.32;78.57;101714.22;1815287;79;20992;-72
2020/12/21 06:15:23;;;;;;;1.40;1.30;;;;;;;-3.32;78.57;101720.84;1815984;78;21486;-71
2020/12/21 06:17:50;;;;;;;2.13;1.80;;;;;;;-3.37;78.61;101720.95;1815804;79;21200;-71
2020/12/21 06:20:20;;;;;;;1.50;1.20;;;;;;;-3.39;78.65;101728.52;1805184;79;21486;-71
2020/12/21 06:22:47;;;;;;;0.93;0.93;;;;;;;-3.44;78.71;101732.59;1805290;78;21105;-71
2020/12/21 06:25:23;;;;;;;1.33;1.17;;;;;;;-3.44;78.85;101729.95;1805249;79;20969;-73
2020/12/21 06:27:50;;;;;;;1.67;1.57;;;;;;;-3.42;78.92;101721.52;1809648;77;21496;-72
2020/12/21 06:30:28;;;;;;;3.20;1.87;;;;;;;-3.38;78.99;101727.16;1837901;77;21899;-73
2020/12/21 06:33:05;;;;;;;2.07;1.87;;;;;;;-3.37;78.97;101726.70;1841407;77;20958;-72
2020/12/21 06:35:42;;;;;;;3.60;1.90;;;;;;;-3.34;79.00;101729.27;1735719;82;20961;-71
2020/12/21 06:38:10;;;;;;;3.70;2.43;;;;;;;-3.32;79.02;101727.45;1772743;80;20997;-73
2020/12/21 06:40:40;;;;;;;2.67;2.00;;;;;;;-3.29;79.01;101733.99;1736166;82;21597;-73
2020/12/21 06:43:11;;;;;;;2.17;1.97;;;;;;;-3.30;78.98;101730.45;1772565;80;22580;-73
2020/12/21 06:45:41;;;;;;;1.52;1.45;;;;;;;-3.28;79.03;101733.92;1790891;79;21602;-74
2020/12/21 06:48:08;;;;;;;2.07;1.97;;;;;;;-3.24;79.04;101736.03;1782892;79;20974;-71
2020/12/21 06:50:36;;;;;;;1.13;1.10;;;;;;;-3.21;78.98;101725.84;1783016;79;20982;-70
2020/12/21 06:53:08;;;;;;;2.63;2.43;;;;;;;-3.25;78.87;101732.52;1782632;80;20978;-72
2020/12/21 06:55:36;;;;;;;2.80;2.03;;;;;;;-3.29;78.84;101730.02;1782778;80;21258;-70
2020/12/21 06:58:04;;;;;;;5.13;3.67;;;;;;;-3.27;78.94;101730.84;1782732;79;21013;-71
2020/12/21 07:00:35;;;;;;;3.13;2.50;;;;;;;-3.27;79.04;101733.03;1782311;80;21002;-73
2020/12/21 07:03:03;;;;;;;5.53;3.60;;;;;;;-3.23;79.17;101731.16;1782129;80;20998;-72
2020/12/21 07:05:30;;;;;;;4.17;2.30;;;;;;;-3.24;79.23;101724.13;1781853;80;21661;-72
2020/12/21 07:08:01;;;;;;;1.83;1.70;;;;;;;-3.21;79.37;101727.16;1769013;80;21259;-73
2020/12/21 07:10:31;;;;;;;1.03;1.03;;;;;;;-3.26;79.45;101726.84;1782303;80;20953;-71
2020/12/21 07:12:59;;;;;;;3.63;2.00;;;;;;;-3.34;79.55;101722.66;1782119;80;20946;-74
2020/12/21 07:15:27;;;;;;;6.83;2.93;;;;;;;-3.39;79.68;101720.59;1780858;78;21050;-73
2020/12/21 07:17:58;;;;;;;1.80;1.70;;;;;;;-3.42;79.84;101726.80;1780372;79;21042;-73
2020/12/21 07:20:27;;;;;;;1.70;1.40;;;;;;;-3.43;79.89;101723.77;1802973;79;21317;-74
2020/12/21 07:22:55;;;;;;;4.53;3.00;;;;;;;-3.45;79.92;101718.52;1809305;79;21009;-71
2020/12/21 07:25:23;;;;;;;5.93;3.57;;;;;;;-3.42;79.99;101724.63;1809399;79;21030;-74
2020/12/21 07:27:52;;;;;;;3.20;1.80;;;;;;;-3.40;79.99;101722.80;1741505;80;21726;-73
2020/12/21 07:30:26;;;;;;;1.77;1.37;;;;;;;-3.44;79.93;101720.70;1790156;80;21058;-77
2020/12/21 07:32:54;;;;;;;2.07;1.83;;;;;;;-3.47;79.90;101721.66;1775770;80;21748;-74
2020/12/21 07:35:22;;;;;;;1.93;1.83;;;;;;;-3.48;79.90;101717.27;1780019;80;21248;-73
2020/12/21 07:37:51;;;;;;;3.17;2.80;;;;;;;-3.50;79.92;101723.05;1730713;82;20964;-74
2020/12/21 07:40:20;;;;;;;2.83;1.73;;;;;;;-3.49;79.96;101717.30;1733948;81;21035;-73
2020/12/21 07:42:49;;;;;;;3.47;2.30;;;;;;;-3.49;79.98;101716.87;1713485;82;22369;-76
2020/12/21 07:45:20;;;;;;;2.13;2.03;;;;;;;-3.51;80.00;101721.30;1713664;82;22489;-76
2020/12/21 07:47:48;;;;;;;4.03;2.30;;;;;;;-3.49;80.08;101720.84;1708226;81;21631;-74
2020/12/21 07:50:16;;;;;;;2.43;2.23;;;;;;;-3.49;80.11;101729.20;1688245;85;20998;-73
2020/12/21 07:52:44;;;;;;;6.57;3.67;;;;;;;-3.53;80.13;101728.41;1739576;81;21591;-75
2020/12/21 07:55:12;;;;;;;3.40;2.43;;;;;;;-3.53;80.19;101734.16;1739913;82;21002;-74
2020/12/21 07:57:40;;;;;;;3.13;2.33;;;;;;;-3.55;80.27;101724.09;1739592;82;21609;-74
2020/12/21 08:00:08;;;;;;;1.63;1.53;;;;;;;-3.54;80.39;101734.63;1739502;82;21009;-74
2020/12/21 08:02:36;;;;;;;2.10;1.90;;;;;;;-3.55;80.41;101721.44;1739452;82;21141;-75
2020/12/21 08:05:04;;;;;;;3.33;2.00;;;;;;;-3.54;80.49;101732.41;1672731;82;21486;-75
2020/12/21 08:07:34;;;;;;;2.23;1.97;;;;;;;-3.52;80.58;101727.98;1741881;81;21051;-75
2020/12/21 08:10:01;;;;;;;1.53;1.43;;;;;;;-3.51;80.66;101731.88;1739685;82;21419;-76
2020/12/21 08:12:30;;;;;;;3.40;2.70;;;;;;;-3.49;80.71;101726.55;1740034;82;21556;-74
2020/12/21 08:15:00;;;;;;;4.93;3.23;;;;;;;-3.47;80.75;101732.67;1739861;80;22203;-75
2020/12/21 08:17:30;;;;;;;12.57;5.27;;;;;;;-3.41;80.87;101718.44;1739649;81;21019;-74
2020/12/21 08:20:01;;;;;;;10.23;4.47;;;;;;;-3.36;80.96;101719.19;1766544;80;21005;-75
2020/12/21 08:22:30;;;;;;;12.00;6.63;;;;;;;-3.36;80.93;101727.12;1768292;80;22109;-74
2020/12/21 08:25:09;;;;;;;8.40;4.37;;;;;;;-3.41;80.85;101723.73;1775084;80;20999;-74
2020/12/21 08:27:43;;;;;;;11.60;6.33;;;;;;;-3.44;80.83;101723.34;1775206;80;20982;-72
2020/12/21 08:30:13;;;;;;;13.70;6.93;;;;;;;-3.47;80.90;101728.70;1776643;79;21582;-72
2020/12/21 08:32:42;;;;;;;11.30;4.47;;;;;;;-3.44;81.03;101722.88;1776532;80;20945;-72
2020/12/21 08:35:10;;;;;;;6.67;4.60;;;;;;;-3.46;81.06;101722.05;1776847;80;22546;-71
2020/12/21 08:37:39;;;;;;;5.57;2.80;;;;;;;-3.45;81.05;101722.95;1776773;80;20996;-71
2020/12/21 08:40:13;;;;;;;1.83;1.73;;;;;;;-3.45;81.12;101721.16;1776792;80;21000;-71
2020/12/21 08:42:41;;;;;;;2.20;1.90;;;;;;;-3.42;81.18;101728.13;1781119;79;21029;-71
2020/12/21 08:45:09;;;;;;;1.90;1.80;;;;;;;-3.39;81.21;101717.48;1802879;79;20937;-73
2020/12/21 08:47:37;;;;;;;3.40;2.50;;;;;;;-3.37;81.25;101720.95;1811276;78;21175;-76
2020/12/21 08:50:08;;;;;;;3.73;2.47;;;;;;;-3.36;81.26;101715.22;1813595;78;21520;-73
2020/12/21 08:52:36;;;;;;;2.37;2.20;;;;;;;-3.34;81.31;101718.69;1813361;78;20958;-73
2020/12/21 08:55:06;;;;;;;3.40;2.20;;;;;;;-3.39;81.29;101717.94;1795414;79;21579;-75
2020/12/21 08:57:34;;;;;;;5.43;3.20;;;;;;;-3.45;81.31;101718.52;1791046;80;21088;-73
2020/12/21 09:00:05;;;;;;;2.03;1.93;;;;;;;-3.52;81.36;101726.20;1790679;78;21286;-74
2020/12/21 09:02:33;;;;;;;3.67;2.47;;;;;;;-3.54;81.46;101723.16;1790515;78;21032;-74
2020/12/21 09:05:03;;;;;;;5.63;3.77;;;;;;;-3.53;81.58;101723.59;1790780;79;20978;-74
2020/12/21 09:07:33;;;;;;;4.90;2.90;;;;;;;-3.54;81.65;101708.61;1788850;80;20945;-73
2020/12/21 09:10:05;;;;;;;8.20;3.97;;;;;;;-3.56;81.77;101711.33;1790758;80;20906;-75
2020/12/21 09:12:34;;;;;;;3.73;3.40;;;;;;;-3.54;81.87;101712.58;1790718;79;20942;-74
2020/12/21 09:15:03;;;;;;;5.03;3.67;;;;;;;-3.54;81.98;101708.19;1790347;80;21424;-75
2020/12/21 09:17:30;;;;;;;5.00;2.93;;;;;;;-3.57;81.96;101706.08;1790963;80;20934;-74
2020/12/21 09:19:58;;;;;;;4.83;2.87;;;;;;;-3.59;81.95;101694.64;1799346;78;20998;-74
2020/12/21 09:22:27;;;;;;;2.60;1.83;;;;;;;-3.60;81.99;101696.89;1733283;82;21011;-74
2020/12/21 09:24:55;;;;;;;3.20;2.73;;;;;;;-3.60;82.04;101696.42;1757903;81;22197;-74
2020/12/21 09:27:22;;;;;;;2.30;2.10;;;;;;;-3.58;82.05;101692.42;1732580;82;20931;-74
2020/12/21 09:29:51;;;;;;;2.30;2.10;;;;;;;-3.59;82.04;101692.89;1801787;79;21038;-73
2020/12/21 09:32:19;;;;;;;5.63;2.97;;;;;;;-3.60;82.02;101692.45;1804814;79;21525;-75
2020/12/21 09:34:48;;;;;;;4.50;2.90;;;;;;;-3.60;82.01;101694.24;1841873;77;21021;-74
2020/12/21 09:37:16;;;;;;;2.70;2.33;;;;;;;-3.64;82.00;101699.61;1822930;78;20997;-74
2020/12/21 09:39:45;;;;;;;2.90;2.60;;;;;;;-3.72;81.95;101694.09;1822943;78;20993;-73
2020/12/21 09:42:13;;;;;;;1.90;1.80;;;;;;;-3.77;81.96;101690.70;1822876;78;20890;-78
2020/12/21 09:44:41;;;;;;;5.80;2.80;;;;;;;-3.77;82.05;101684.98;1822928;78;21591;-72
2020/12/21 09:47:09;;;;;;;3.43;3.00;;;;;;;-3.75;82.12;101681.84;1821048;77;20983;-75
2020/12/21 09:49:37;;;;;;;3.13;2.77;;;;;;;-3.71;82.21;101683.48;1814071;79;21779;-71
2020/12/21 09:52:06;;;;;;;3.97;3.23;;;;;;;-3.71;82.20;101690.56;1810936;79;20983;-75
2020/12/21 09:54:33;;;;;;;3.33;2.20;;;;;;;-3.73;82.14;101682.66;1803286;79;20965;-76
2020/12/21 09:57:01;;;;;;;3.43;2.47;;;;;;;-3.74;82.13;101683.55;1803076;79;21019;-77
2020/12/21 09:59:30;;;;;;;3.20;2.50;;;;;;;-3.77;82.06;101692.91;1803261;79;20982;-78
2020/12/21 10:02:09;;;;;;;2.70;2.37;;;;;;;-3.77;82.04;101690.27;1789535;79;21510;-78
2020/12/21 10:04:37;;;;;;;4.47;3.23;;;;;;;-3.75;81.99;101692.84;1801958;79;20979;-75
2020/12/21 10:07:05;;;;;;;3.17;2.10;;;;;;;-3.77;81.96;101691.59;1803215;79;21555;-77
2020/12/21 10:09:34;;;;;;;4.87;2.40;;;;;;;-3.79;81.79;101689.88;1789918;79;21140;-76
2020/12/21 10:12:01;;;;;;;2.90;2.43;;;;;;;-3.84;81.64;101696.16;1803333;78;20982;-79
2020/12/21 10:14:30;;;;;;;5.27;3.33;;;;;;;-3.86;81.54;101691.80;1803734;79;21813;-81
2020/12/21 10:16:58;;;;;;;2.97;2.73;;;;;;;-3.88;81.51;101693.61;1803316;79;20971;-77
2020/12/21 10:19:26;;;;;;;7.20;2.90;;;;;;;-3.89;81.41;101683.50;1777670;79;21531;-79
2020/12/21 10:21:54;;;;;;;2.63;1.97;;;;;;;-3.88;81.21;101690.97;1755982;81;20985;-78
2020/12/21 10:24:22;;;;;;;5.23;2.97;;;;;;;-3.89;81.08;101687.93;1756656;81;21045;-77
2020/12/21 10:26:49;;;;;;;4.27;2.87;;;;;;;-3.87;80.95;101692.72;1755526;80;22529;-75
2020/12/21 10:29:17;;;;;;;3.60;3.27;;;;;;;-3.87;80.76;101690.94;1775204;80;21046;-77
2020/12/21 10:31:45;;;;;;;2.37;2.17;;;;;;;-3.84;80.66;101686.05;1707658;82;20995;-78
2020/12/21 10:34:13;;;;;;;3.77;2.83;;;;;;;-3.82;80.53;101694.80;1728313;83;21042;-78
2020/12/21 10:36:43;;;;;;;3.13;2.47;;;;;;;-3.82;80.34;101686.41;1711445;83;21219;-79
2020/12/21 10:39:12;;;;;;;4.80;3.17;;;;;;;-3.84;80.12;101680.30;1735749;82;21798;-78
2020/12/21 10:41:40;;;;;;;2.70;2.50;;;;;;;-3.86;80.05;101684.76;1716256;82;21518;-78
2020/12/21 10:44:08;;;;;;;5.13;3.00;;;;;;;-3.86;79.91;101680.80;1792424;79;21023;-78
2020/12/21 10:46:37;;;;;;;5.53;3.10;;;;;;;-3.85;79.89;101681.19;1785304;79;21018;-74
2020/12/21 10:49:06;;;;;;;2.93;2.60;;;;;;;-3.82;79.86;101678.48;1721755;81;21042;-76
2020/12/21 10:51:34;;;;;;;7.03;3.80;;;;;;;-3.80;79.79;101683.73;1803592;79;21037;-77
2020/12/21 10:54:02;;;;;;;3.63;2.57;;;;;;;-3.76;79.74;101681.88;1803389;79;20892;-75
2020/12/21 10:56:30;;;;;;;2.33;2.13;;;;;;;-3.74;79.70;101684.02;1804205;79;20927;-76
2020/12/21 10:58:58;;;;;;;5.63;2.43;;;;;;;-3.70;79.65;101681.27;1814903;79;21565;-79
2020/12/21 11:01:26;;;;;;;4.20;2.93;;;;;;;-3.66;79.57;101680.73;1801931;79;20985;-71
2020/12/21 11:03:54;;;;;;;6.80;2.90;;;;;;;-3.63;79.42;101674.02;1787164;79;21783;-71
2020/12/21 11:06:23;;;;;;;3.80;2.70;;;;;;;-3.61;79.32;101673.55;1787039;80;20954;-73
2020/12/21 11:08:55;;;;;;;4.57;2.90;;;;;;;-3.59;79.20;101666.45;1787129;80;21104;-72
2020/12/21 11:11:27;;;;;;;4.40;2.97;;;;;;;-3.58;79.09;101669.48;1786838;80;20997;-71
2020/12/21 11:13:55;;;;;;;1.92;1.77;;;;;;;-3.54;79.09;101667.63;1786200;79;21013;-76
2020/12/21 11:16:23;;;;;;;7.17;4.13;;;;;;;-3.54;78.98;101663.23;1767032;80;21258;-69
2020/12/21 11:18:52;;;;;;;5.77;3.30;;;;;;;-3.56;78.89;101669.02;1756011;79;20953;-69
2020/12/21 11:21:19;;;;;;;5.43;3.23;;;;;;;-3.54;78.85;101670.27;1764871;80;20989;-71
2020/12/21 11:23:49;;;;;;;5.37;3.37;;;;;;;-3.51;78.83;101671.05;1787095;79;20970;-72
2020/12/21 11:26:19;;;;;;;3.07;2.20;;;;;;;-3.52;78.69;101678.59;1786100;79;21009;-72
2020/12/21 11:28:47;;;;;;;3.67;1.90;;;;;;;-3.53;78.54;101686.10;1771594;80;22094;-70
2020/12/21 11:31:16;;;;;;;2.43;2.17;;;;;;;-3.54;78.39;101677.77;1711898;82;21039;-73